createdAt,value
2017-12-01T00:02:34.855Z,7.07
2017-12-01T00:17:34.720Z,5.50
2017-12-01T00:32:33.705Z,6.17
2017-12-01T00:47:35.075Z,7.53
2017-12-01T01:02:35.055Z,5.50
2017-12-01T01:17:35.490Z,6.90
2017-12-01T01:32:36.914Z,6.20
2017-12-01T01:47:34.327Z,8.30
2017-12-01T02:02:35.470Z,8.23
2017-12-01T02:17:35.229Z,8.03
2017-12-01T02:32:35.149Z,6.07
2017-12-01T02:47:33.891Z,7.23
2017-12-01T03:02:34.714Z,9.20
2017-12-01T03:17:33.966Z,10.60
2017-12-01T03:32:34.287Z,7.50
2017-12-01T03:47:34.762Z,8.20
2017-12-01T04:02:35.825Z,10.63
2017-12-01T04:17:34.149Z,7.67
2017-12-01T04:32:34.024Z,12.17
2017-12-01T04:47:36.920Z,12.13
2017-12-01T05:02:35.192Z,15.73
2017-12-01T05:17:35.152Z,11.03
2017-12-01T05:32:39.239Z,16.47
2017-12-01T05:47:34.876Z,19.07
2017-12-01T06:02:38.372Z,20.50
2017-12-01T06:17:35.023Z,24.90
2017-12-01T06:32:38.552Z,27.30
2017-12-01T06:47:36.380Z,28.10
2017-12-01T07:02:34.491Z,30.73
2017-12-01T07:17:34.715Z,30.83
2017-12-01T07:32:34.831Z,10.43
2017-12-01T07:47:35.027Z,3.63
2017-12-01T08:02:35.199Z,3.77
2017-12-01T08:17:36.461Z,5.50
2017-12-01T08:32:36.078Z,6.10
2017-12-01T08:47:36.931Z,4.03
2017-12-01T09:02:36.911Z,4.70
2017-12-01T09:17:34.703Z,7.50
2017-12-01T09:32:34.545Z,5.50
2017-12-01T09:47:34.990Z,4.10
2017-12-01T10:02:35.181Z,5.00
2017-12-01T10:17:35.625Z,3.60
2017-12-01T10:32:34.957Z,11.20
2017-12-01T10:47:34.082Z,7.83
2017-12-01T11:02:35.775Z,6.30
2017-12-01T11:17:35.166Z,8.30
2017-12-01T11:32:35.113Z,10.00
2017-12-01T11:47:34.319Z,14.07
2017-12-01T12:02:36.483Z,8.10
2017-12-01T12:17:34.151Z,11.53
2017-12-01T12:32:37.369Z,14.30
2017-12-01T12:47:33.793Z,12.40
2017-12-01T13:02:34.483Z,9.30
2017-12-01T13:17:36.436Z,11.90
2017-12-01T13:32:34.562Z,10.50
2017-12-01T13:47:34.947Z,28.90
2017-12-01T14:02:36.437Z,23.00
2017-12-01T14:17:34.870Z,26.10
2017-12-01T14:32:34.795Z,25.23
2017-12-01T14:47:35.108Z,24.20
2017-12-01T15:02:36.413Z,16.07
2017-12-01T15:17:35.008Z,26.50
2017-12-01T15:32:34.932Z,43.40
2017-12-01T15:47:34.339Z,45.30
2017-12-01T16:02:35.357Z,40.67
2017-12-01T16:17:37.344Z,25.20
2017-12-01T16:32:42.333Z,38.30
2017-12-01T16:47:35.529Z,50.43
2017-12-01T17:02:36.506Z,27.17
2017-12-01T17:17:35.088Z,27.87
2017-12-01T17:32:36.412Z,25.20
2017-12-01T17:47:37.821Z,24.10
2017-12-01T18:02:34.737Z,27.97
2017-12-01T18:17:34.651Z,31.90
2017-12-01T18:32:35.686Z,22.40
2017-12-01T18:47:35.078Z,23.73
2017-12-01T19:02:34.444Z,21.93
2017-12-01T19:17:35.976Z,21.00
2017-12-01T19:32:36.924Z,15.93
2017-12-01T19:47:35.598Z,17.57
2017-12-01T20:02:35.011Z,11.00
2017-12-01T20:17:35.180Z,9.53
2017-12-01T20:32:35.133Z,7.57
2017-12-01T20:47:34.279Z,11.40
2017-12-01T21:02:36.578Z,13.10
2017-12-01T21:17:37.478Z,19.70
2017-12-01T21:32:34.946Z,16.40
2017-12-01T21:47:36.738Z,15.43
2017-12-01T22:02:37.409Z,10.37
2017-12-01T22:17:34.708Z,10.60
2017-12-01T22:32:36.548Z,10.40
2017-12-01T22:47:35.328Z,11.73
2017-12-01T23:02:34.920Z,10.50
2017-12-01T23:17:34.079Z,13.50
2017-12-01T23:32:34.719Z,5.77
2017-12-01T23:47:35.731Z,7.70
